Time;durP1;ratioP1;P1;durP2;ratioP2;P2;SDS_P1;SDS_P2;PMS_P1;PMS_P2;Temp;Humidity;BMP_temperature;BMP_pressure;BME280_temperature;BME280_humidity;BME280_pressure;Samples;Min_cycle;Max_cycle;Signal;HPM_P1;HPM_P2
2021/05/20 00:00:52;;;;;;;7.07;6.47;;;11.20;99.90;;;;;;2064248;28;20031;-68
2021/05/20 00:01:53;;;;;;;6.15;5.57;;;11.30;99.90;;;;;;2064165;28;20465;-68
2021/05/20 00:02:54;;;;;;;5.60;5.15;;;11.20;99.90;;;;;;2063553;28;20513;-68
2021/05/20 00:03:54;;;;;;;5.85;5.25;;;11.20;99.90;;;;;;2064358;28;20385;-68
2021/05/20 00:04:55;;;;;;;6.35;5.75;;;11.20;99.90;;;;;;2064109;28;20034;-67
2021/05/20 00:05:56;;;;;;;5.90;5.40;;;11.20;99.90;;;;;;2064506;28;20113;-67
2021/05/20 00:06:56;;;;;;;6.43;5.82;;;11.20;99.90;;;;;;2064473;28;20018;-68
2021/05/20 00:07:57;;;;;;;7.50;6.75;;;11.20;99.90;;;;;;2064340;28;20027;-68
2021/05/20 00:08:57;;;;;;;5.22;4.72;;;11.20;99.90;;;;;;2064122;28;20027;-68
2021/05/20 00:09:58;;;;;;;6.45;5.93;;;11.20;99.90;;;;;;2063670;28;20026;-68
2021/05/20 00:10:58;;;;;;;6.82;6.20;;;11.20;99.90;;;;;;2064126;28;20027;-68
2021/05/20 00:12:00;;;;;;;6.57;5.97;;;11.20;99.90;;;;;;2064081;28;20033;-68
2021/05/20 00:13:00;;;;;;;6.97;6.38;;;11.20;99.90;;;;;;2063294;28;20033;-68
2021/05/20 00:14:01;;;;;;;7.20;6.60;;;11.20;99.90;;;;;;2063891;28;20042;-68
2021/05/20 00:15:03;;;;;;;6.68;6.07;;;11.20;99.90;;;;;;2064334;28;20057;-68
2021/05/20 00:16:04;;;;;;;5.72;5.32;;;11.20;99.90;;;;;;2064018;28;20022;-68
2021/05/20 00:17:05;;;;;;;6.72;6.13;;;11.20;99.90;;;;;;2064255;28;20030;-67
2021/05/20 00:18:06;;;;;;;7.70;7.00;;;11.20;99.90;;;;;;2071680;28;20061;-67
2021/05/20 00:19:07;;;;;;;8.68;7.88;;;11.20;99.90;;;;;;2071321;28;20132;-68
2021/05/20 00:20:09;;;;;;;7.70;7.00;;;11.20;99.90;;;;;;2064141;28;20114;-67
2021/05/20 00:21:09;;;;;;;7.97;7.20;;;11.20;99.90;;;;;;2064184;28;20129;-68
2021/05/20 00:22:10;;;;;;;8.75;7.65;;;11.20;99.90;;;;;;2063890;28;20471;-67
2021/05/20 00:23:10;;;;;;;6.53;5.93;;;11.20;99.90;;;;;;2064238;28;20096;-67
2021/05/20 00:24:11;;;;;;;8.40;7.60;;;11.20;99.90;;;;;;2063700;28;20033;-68
2021/05/20 00:25:12;;;;;;;9.85;8.95;;;11.20;99.90;;;;;;2064565;28;20041;-68
2021/05/20 00:26:13;;;;;;;9.98;8.68;;;11.20;99.90;;;;;;2064064;28;20030;-67
2021/05/20 00:27:14;;;;;;;10.43;9.13;;;11.20;99.90;;;;;;2064389;28;20049;-67
2021/05/20 00:28:14;;;;;;;9.68;8.60;;;11.20;99.90;;;;;;2064106;28;20480;-68
2021/05/20 00:29:15;;;;;;;10.23;9.25;;;11.20;99.90;;;;;;2064088;28;20030;-68
2021/05/20 00:30:16;;;;;;;10.50;9.60;;;11.20;99.90;;;;;;2064155;28;20021;-68
2021/05/20 00:31:17;;;;;;;9.93;8.93;;;11.20;99.90;;;;;;2064176;28;20062;-68
2021/05/20 00:32:17;;;;;;;9.32;8.43;;;11.20;99.90;;;;;;2063398;28;20530;-68
2021/05/20 00:33:18;;;;;;;9.02;8.13;;;11.20;99.90;;;;;;2064447;28;20072;-68
2021/05/20 00:34:19;;;;;;;10.45;8.77;;;11.20;99.90;;;;;;2064019;28;20109;-68
2021/05/20 00:35:19;;;;;;;11.55;10.45;;;11.20;99.90;;;;;;2064007;28;20067;-68
2021/05/20 00:36:20;;;;;;;8.52;7.82;;;11.20;99.90;;;;;;2063701;28;20027;-68
2021/05/20 00:37:20;;;;;;;9.30;8.48;;;11.20;99.90;;;;;;2064071;28;20487;-68
2021/05/20 00:38:21;;;;;;;8.95;8.05;;;11.20;99.90;;;;;;2064576;28;20101;-68
2021/05/20 00:39:21;;;;;;;13.38;10.43;;;11.20;99.90;;;;;;2063730;28;20082;-68
2021/05/20 00:40:22;;;;;;;11.07;10.02;;;11.20;99.90;;;;;;2064415;28;20068;-68
2021/05/20 00:41:23;;;;;;;9.75;8.43;;;11.20;99.90;;;;;;2063838;28;20394;-67
2021/05/20 00:42:23;;;;;;;10.32;8.10;;;11.20;99.90;;;;;;2063586;28;20034;-67
2021/05/20 00:43:24;;;;;;;9.13;8.27;;;11.20;99.90;;;;;;2063889;28;20030;-68
2021/05/20 00:44:24;;;;;;;9.85;8.85;;;11.20;99.90;;;;;;2064052;28;20096;-67
2021/05/20 00:45:25;;;;;;;9.45;8.63;;;11.20;99.90;;;;;;2063629;28;20119;-67
2021/05/20 00:46:26;;;;;;;10.82;9.70;;;11.20;99.90;;;;;;2064437;28;20042;-68
2021/05/20 00:47:31;;;;;;;8.90;7.95;;;11.20;99.90;;;;;;2063844;28;20090;-68
2021/05/20 00:48:32;;;;;;;9.85;8.82;;;11.20;99.90;;;;;;2063918;28;20026;-67
2021/05/20 00:49:35;;;;;;;10.68;9.77;;;11.10;99.90;;;;;;2063918;28;20030;-68
2021/05/20 00:50:36;;;;;;;10.38;8.65;;;11.10;99.90;;;;;;2064076;28;20081;-68
2021/05/20 00:51:40;;;;;;;10.20;9.20;;;11.10;99.90;;;;;;2063601;28;20072;-67
2021/05/20 00:52:41;;;;;;;10.35;9.40;;;11.10;99.90;;;;;;2063534;28;20550;-68
2021/05/20 00:53:42;;;;;;;12.82;11.60;;;11.10;99.90;;;;;;2071140;28;20437;-68
2021/05/20 00:54:42;;;;;;;12.23;11.00;;;11.10;99.90;;;;;;2071454;28;20037;-68
2021/05/20 00:55:43;;;;;;;11.38;10.27;;;11.10;99.90;;;;;;2063641;28;20033;-68
2021/05/20 00:56:44;;;;;;;12.02;10.93;;;11.10;99.90;;;;;;2064234;28;20030;-68
2021/05/20 00:57:45;;;;;;;11.73;10.52;;;11.10;99.90;;;;;;2064181;28;20030;-68
2021/05/20 00:58:45;;;;;;;11.32;10.23;;;11.10;99.90;;;;;;2063935;28;20026;-68
2021/05/20 00:59:48;;;;;;;12.05;10.93;;;11.10;99.90;;;;;;2071011;28;20121;-68
2021/05/20 01:00:51;;;;;;;13.27;11.98;;;11.10;99.90;;;;;;2063512;28;20468;-67
2021/05/20 01:01:52;;;;;;;13.60;12.07;;;11.00;99.90;;;;;;2063136;28;20579;-67
2021/05/20 01:02:53;;;;;;;12.30;11.20;;;11.00;99.90;;;;;;2063478;28;20038;-68
2021/05/20 01:03:53;;;;;;;11.25;10.15;;;11.10;99.90;;;;;;2064112;28;20794;-67
2021/05/20 01:04:54;;;;;;;11.82;10.63;;;11.00;99.90;;;;;;2064062;28;20085;-67
2021/05/20 01:05:54;;;;;;;13.88;12.43;;;11.00;99.90;;;;;;2063681;28;20118;-68
2021/05/20 01:06:55;;;;;;;12.00;10.90;;;11.00;99.90;;;;;;2063781;28;20022;-67
2021/05/20 01:07:56;;;;;;;15.57;14.10;;;11.00;99.90;;;;;;2063558;28;20434;-67
2021/05/20 01:08:57;;;;;;;12.95;11.65;;;11.00;99.90;;;;;;2064132;28;20029;-67
2021/05/20 01:09:58;;;;;;;11.20;10.13;;;11.00;99.90;;;;;;2071274;28;20034;-67
2021/05/20 01:10:59;;;;;;;10.88;9.77;;;11.00;99.90;;;;;;2071608;28;20084;-67
2021/05/20 01:12:00;;;;;;;12.48;11.18;;;11.00;99.90;;;;;;2063746;28;20101;-67
2021/05/20 01:13:01;;;;;;;12.07;10.88;;;11.00;99.90;;;;;;2063398;28;20018;-67
2021/05/20 01:14:01;;;;;;;13.80;12.48;;;11.00;99.90;;;;;;2063735;28;20030;-67
2021/05/20 01:15:21;;;;;;;10.68;9.77;;;11.00;99.90;;;;;;2063727;28;20054;-68
2021/05/20 01:16:22;;;;;;;13.55;12.27;;;11.00;99.90;;;;;;2062820;28;20083;-67
2021/05/20 01:17:24;;;;;;;14.27;12.88;;;11.00;99.90;;;;;;2063583;28;20536;-67
2021/05/20 01:18:25;;;;;;;14.13;12.63;;;11.00;99.90;;;;;;2063958;28;20050;-68
2021/05/20 01:19:25;;;;;;;14.77;13.38;;;11.00;99.90;;;;;;2063496;28;20517;-67
2021/05/20 01:20:38;;;;;;;11.63;10.43;;;11.00;99.90;;;;;;2063753;28;20041;-68
2021/05/20 01:21:40;;;;;;;13.93;12.52;;;10.90;99.90;;;;;;2063276;28;20034;-68
2021/05/20 01:22:41;;;;;;;15.35;13.82;;;10.90;99.90;;;;;;2063288;28;20030;-68
2021/05/20 01:23:41;;;;;;;18.80;15.70;;;10.90;99.90;;;;;;2063691;28;20042;-68
2021/05/20 01:24:43;;;;;;;17.67;14.85;;;10.90;99.90;;;;;;2063907;28;20117;-68
2021/05/20 01:25:46;;;;;;;15.18;13.63;;;10.90;99.90;;;;;;2063730;28;20105;-68
2021/05/20 01:26:48;;;;;;;15.43;13.77;;;10.90;99.90;;;;;;2063999;28;20030;-68
2021/05/20 01:27:51;;;;;;;14.73;13.23;;;11.00;99.90;;;;;;2063605;28;20026;-68
2021/05/20 01:28:52;;;;;;;15.43;13.77;;;10.90;99.90;;;;;;2063717;28;20037;-68
2021/05/20 01:29:52;;;;;;;12.68;11.43;;;10.90;99.90;;;;;;2063493;28;20080;-68
2021/05/20 01:30:53;;;;;;;16.33;14.63;;;10.90;99.90;;;;;;2063694;28;20027;-68
2021/05/20 01:31:54;;;;;;;14.85;13.35;;;10.90;99.90;;;;;;2063836;28;20351;-68
2021/05/20 01:32:54;;;;;;;15.45;13.27;;;11.00;99.90;;;;;;2063009;28;20561;-68
2021/05/20 01:33:55;;;;;;;12.55;11.27;;;11.00;99.90;;;;;;2063982;28;20073;-68
2021/05/20 01:34:58;;;;;;;16.05;14.55;;;11.00;99.90;;;;;;2063626;28;20026;-67
2021/05/20 01:35:59;;;;;;;12.85;11.55;;;11.00;99.90;;;;;;2063338;28;20022;-67
2021/05/20 01:37:04;;;;;;;15.45;13.98;;;10.90;99.90;;;;;;2063462;28;20057;-67
2021/05/20 01:39:15;;;;;;;16.83;14.48;;;10.90;99.90;;;;;;2070341;28;20026;-67
2021/05/20 01:40:16;;;;;;;17.75;15.88;;;10.90;99.90;;;;;;2063410;28;20486;-67
2021/05/20 01:41:17;;;;;;;16.73;14.85;;;10.90;99.90;;;;;;2063185;28;20033;-67
2021/05/20 01:42:17;;;;;;;16.75;15.15;;;10.90;99.90;;;;;;2070671;28;20041;-68
2021/05/20 01:43:18;;;;;;;17.65;15.93;;;10.90;99.90;;;;;;2071590;28;20037;-68
2021/05/20 01:44:20;;;;;;;15.85;14.32;;;10.90;99.90;;;;;;2063646;28;20079;-68
2021/05/20 01:45:21;;;;;;;17.42;15.73;;;10.90;99.90;;;;;;2063499;28;20109;-67
2021/05/20 01:46:22;;;;;;;18.38;16.52;;;10.90;99.90;;;;;;2063559;28;20034;-67
2021/05/20 01:47:23;;;;;;;19.70;17.83;;;10.90;99.90;;;;;;2063454;28;20022;-67
2021/05/20 01:48:24;;;;;;;18.00;16.17;;;10.90;99.90;;;;;;2063780;28;20097;-67
2021/05/20 01:49:25;;;;;;;18.33;16.52;;;10.90;99.90;;;;;;2063291;28;20022;-68
2021/05/20 01:50:26;;;;;;;17.38;15.68;;;10.90;99.90;;;;;;2063465;28;20056;-67
2021/05/20 01:51:27;;;;;;;19.67;17.77;;;10.90;99.90;;;;;;2063162;28;20038;-68
2021/05/20 01:52:27;;;;;;;21.50;18.80;;;10.90;99.90;;;;;;2062975;28;20054;-68
2021/05/20 01:53:28;;;;;;;20.05;18.05;;;10.90;99.90;;;;;;2063382;28;20030;-67
2021/05/20 01:54:29;;;;;;;21.13;19.02;;;10.90;99.90;;;;;;2063876;28;20351;-68
2021/05/20 01:55:29;;;;;;;22.35;20.05;;;10.90;99.90;;;;;;2063497;28;20213;-67
2021/05/20 01:56:34;;;;;;;22.95;20.48;;;11.00;99.90;;;;;;2063291;28;20042;-67
2021/05/20 01:57:35;;;;;;;23.73;21.17;;;11.00;99.90;;;;;;2063478;28;20105;-67
2021/05/20 01:58:36;;;;;;;23.48;21.00;;;11.00;99.90;;;;;;2063600;28;20037;-67
2021/05/20 01:59:40;;;;;;;24.15;21.67;;;11.00;99.90;;;;;;2063372;28;20447;-67
2021/05/20 02:00:41;;;;;;;25.45;22.75;;;11.00;99.90;;;;;;2063677;28;20026;-67
2021/05/20 02:01:41;;;;;;;27.15;23.95;;;11.00;99.90;;;;;;2064419;28;20042;-68
2021/05/20 02:02:42;;;;;;;25.85;23.38;;;11.00;99.90;;;;;;2064164;28;20023;-68
2021/05/20 02:03:43;;;;;;;27.15;24.35;;;11.00;99.90;;;;;;2063726;28;20070;-67
2021/05/20 02:04:43;;;;;;;30.20;24.23;;;11.10;99.90;;;;;;2064603;28;20033;-67
2021/05/20 02:05:44;;;;;;;28.63;25.42;;;11.00;99.90;;;;;;2064389;28;20022;-67
2021/05/20 02:06:44;;;;;;;27.35;24.40;;;11.10;99.90;;;;;;2064550;28;20022;-67
2021/05/20 02:07:45;;;;;;;27.50;24.63;;;11.10;99.90;;;;;;2064051;28;20034;-67
2021/05/20 02:08:45;;;;;;;27.27;24.15;;;11.10;99.90;;;;;;2063857;28;20367;-68
2021/05/20 02:09:46;;;;;;;27.20;24.15;;;11.10;99.90;;;;;;2064014;28;20022;-68
2021/05/20 02:10:46;;;;;;;25.52;22.88;;;11.10;99.90;;;;;;2064035;28;20110;-68
2021/05/20 02:11:47;;;;;;;25.58;22.98;;;11.10;99.90;;;;;;2063770;28;20033;-68
2021/05/20 02:12:48;;;;;;;26.50;23.77;;;11.10;99.90;;;;;;2063580;28;20050;-68
2021/05/20 02:13:48;;;;;;;26.15;23.05;;;11.10;99.90;;;;;;2063908;28;20390;-68
2021/05/20 02:14:49;;;;;;;28.38;25.58;;;11.20;99.90;;;;;;2064113;28;20350;-68
2021/05/20 02:15:50;;;;;;;27.17;24.27;;;11.20;99.90;;;;;;2063764;28;20442;-68
2021/05/20 02:16:51;;;;;;;26.15;23.42;;;11.20;99.90;;;;;;2063775;28;20398;-68
2021/05/20 02:17:53;;;;;;;26.77;23.75;;;11.20;99.90;;;;;;2063784;28;20034;-68
2021/05/20 02:18:53;;;;;;;32.67;26.30;;;11.20;99.90;;;;;;2064363;28;20486;-68
2021/05/20 02:19:54;;;;;;;32.03;26.58;;;11.30;99.90;;;;;;2063838;28;20379;-68
2021/05/20 02:20:54;;;;;;;31.75;26.42;;;11.20;99.90;;;;;;2063877;28;20034;-68
2021/05/20 02:21:55;;;;;;;30.48;26.48;;;11.30;99.90;;;;;;2063160;28;20030;-68
2021/05/20 02:22:55;;;;;;;33.55;26.83;;;11.30;99.90;;;;;;2063350;28;20054;-68
2021/05/20 02:23:56;;;;;;;36.88;28.50;;;11.30;99.90;;;;;;2064191;28;20018;-68
2021/05/20 02:24:56;;;;;;;39.10;29.90;;;11.30;99.90;;;;;;2064354;28;20049;-68
2021/05/20 02:25:58;;;;;;;36.40;29.65;;;11.30;99.90;;;;;;2064115;28;20030;-68
2021/05/20 02:26:58;;;;;;;40.28;30.05;;;11.40;99.90;;;;;;2063930;28;20105;-68
2021/05/20 02:27:59;;;;;;;35.72;29.30;;;11.40;99.90;;;;;;2064020;28;20022;-67
2021/05/20 02:29:00;;;;;;;37.63;30.08;;;11.40;99.90;;;;;;2064014;28;20022;-68
2021/05/20 02:30:00;;;;;;;37.63;29.80;;;11.40;99.90;;;;;;2064356;28;20020;-68
2021/05/20 02:31:01;;;;;;;37.88;29.63;;;11.40;99.90;;;;;;2064161;28;20031;-68
2021/05/20 02:32:01;;;;;;;39.03;32.00;;;11.40;99.90;;;;;;2064379;28;20031;-68
2021/05/20 02:33:02;;;;;;;39.72;32.40;;;11.40;99.90;;;;;;2063217;28;20398;-68
2021/05/20 02:34:03;;;;;;;37.58;31.67;;;11.40;99.90;;;;;;2063515;28;20267;-68
2021/05/20 02:35:04;;;;;;;38.38;30.92;;;11.40;99.90;;;;;;2063990;28;20021;-68
2021/05/20 02:36:05;;;;;;;39.95;32.47;;;11.50;99.90;;;;;;2064252;28;20118;-68
2021/05/20 02:37:06;;;;;;;38.92;31.30;;;11.50;99.90;;;;;;2064047;28;20509;-68
2021/05/20 02:38:07;;;;;;;41.97;34.53;;;11.50;99.90;;;;;;2064459;28;20031;-67
2021/05/20 02:39:07;;;;;;;48.97;35.63;;;11.50;99.90;;;;;;2064113;28;20022;-69
2021/05/20 02:40:10;;;;;;;49.33;37.28;;;11.60;99.90;;;;;;2064413;28;20037;-68
2021/05/20 02:41:10;;;;;;;56.55;39.40;;;11.50;99.90;;;;;;2063940;28;20110;-67
2021/05/20 02:42:11;;;;;;;56.47;39.78;;;11.60;99.90;;;;;;2062903;28;20043;-67
2021/05/20 02:43:12;;;;;;;74.78;46.47;;;11.60;99.90;;;;;;2063258;28;20026;-67
2021/05/20 02:44:12;;;;;;;76.65;47.90;;;11.60;99.90;;;;;;2064277;28;20037;-68
2021/05/20 02:45:19;;;;;;;76.43;46.70;;;11.60;99.90;;;;;;2064140;28;20026;-68
2021/05/20 02:46:19;;;;;;;69.65;47.17;;;11.60;99.90;;;;;;2064391;28;20062;-68
2021/05/20 02:47:20;;;;;;;65.75;44.92;;;11.60;99.90;;;;;;2064064;28;20030;-67
2021/05/20 02:48:20;;;;;;;66.90;44.72;;;11.60;99.90;;;;;;2064257;28;20072;-68
2021/05/20 02:49:21;;;;;;;59.50;40.58;;;11.60;99.90;;;;;;2064083;28;20037;-68
2021/05/20 02:50:24;;;;;;;58.63;41.45;;;11.60;99.90;;;;;;2064428;28;20030;-68
2021/05/20 02:51:25;;;;;;;70.03;44.22;;;11.70;99.90;;;;;;2063891;28;20038;-68
2021/05/20 02:52:26;;;;;;;74.38;46.35;;;11.60;99.90;;;;;;2063284;28;20029;-68
2021/05/20 02:53:26;;;;;;;70.15;44.63;;;11.70;99.90;;;;;;2064032;28;20490;-68
2021/05/20 02:54:27;;;;;;;76.32;47.03;;;11.60;99.90;;;;;;2064247;28;20053;-68
2021/05/20 02:55:27;;;;;;;71.50;46.85;;;11.60;99.90;;;;;;2063903;28;20429;-67
2021/05/20 02:56:28;;;;;;;71.28;43.88;;;11.60;99.90;;;;;;2064327;28;20030;-67
2021/05/20 02:57:30;;;;;;;71.60;45.08;;;11.60;99.90;;;;;;2063894;28;20030;-68
2021/05/20 02:58:30;;;;;;;72.28;45.00;;;11.70;99.90;;;;;;2064450;28;20113;-68
2021/05/20 02:59:31;;;;;;;70.68;46.22;;;11.70;99.90;;;;;;2063932;28;20046;-68
2021/05/20 03:00:34;;;;;;;71.72;45.55;;;11.70;99.90;;;;;;2064147;28;20092;-68
2021/05/20 03:01:40;;;;;;;74.63;45.28;;;11.70;99.90;;;;;;2062912;28;20482;-68
2021/05/20 03:02:40;;;;;;;74.70;44.97;;;11.70;99.90;;;;;;2062112;28;20398;-67
2021/05/20 03:03:41;;;;;;;77.03;47.05;;;11.70;99.90;;;;;;2043078;28;571234;-68
2021/05/20 03:04:41;;;;;;;81.75;46.80;;;11.70;99.90;;;;;;2063500;28;20049;-68
2021/05/20 03:05:42;;;;;;;79.05;46.75;;;11.70;99.90;;;;;;2063266;28;20045;-68
2021/05/20 03:06:43;;;;;;;80.47;46.47;;;11.70;99.90;;;;;;2063535;28;20022;-67
2021/05/20 03:07:44;;;;;;;82.15;47.13;;;11.70;99.90;;;;;;2063174;28;20022;-67
2021/05/20 03:08:44;;;;;;;74.57;44.28;;;11.70;99.90;;;;;;2063774;28;20018;-67
2021/05/20 03:09:45;;;;;;;79.43;47.40;;;11.70;99.90;;;;;;2063098;28;20401;-67
2021/05/20 03:10:45;;;;;;;78.68;44.67;;;11.70;99.90;;;;;;2062477;28;20113;-68
2021/05/20 03:11:46;;;;;;;79.07;47.22;;;11.70;99.90;;;;;;2061541;28;20037;-68
2021/05/20 03:12:47;;;;;;;69.78;43.50;;;11.70;99.90;;;;;;2062224;28;20026;-68
2021/05/20 03:13:47;;;;;;;69.43;44.15;;;11.70;99.90;;;;;;2063116;28;20113;-68
2021/05/20 03:14:48;;;;;;;72.30;44.17;;;11.70;99.90;;;;;;2062760;28;20032;-67
2021/05/20 03:15:48;;;;;;;76.15;45.10;;;11.70;99.90;;;;;;2063036;28;20367;-68
2021/05/20 03:16:49;;;;;;;74.47;44.60;;;11.70;99.90;;;;;;2062929;28;20574;-68
2021/05/20 03:17:49;;;;;;;74.82;44.15;;;11.70;99.90;;;;;;2063189;28;20129;-67
2021/05/20 03:18:50;;;;;;;78.00;46.10;;;11.70;99.90;;;;;;2062990;28;20473;-67
2021/05/20 03:19:51;;;;;;;81.25;46.00;;;11.70;99.90;;;;;;2062853;28;20030;-68
2021/05/20 03:20:51;;;;;;;87.30;46.50;;;11.70;99.90;;;;;;2062815;28;20089;-67
2021/05/20 03:21:52;;;;;;;82.25;46.95;;;11.70;99.90;;;;;;2063109;28;20026;-68
2021/05/20 03:22:52;;;;;;;82.72;46.00;;;11.70;99.90;;;;;;2062106;28;20520;-68
2021/05/20 03:23:55;;;;;;;81.47;47.63;;;11.70;99.90;;;;;;2063002;28;20030;-68
2021/05/20 03:24:55;;;;;;;81.10;47.72;;;11.70;99.90;;;;;;2062881;28;20079;-68
2021/05/20 03:25:56;;;;;;;87.85;48.13;;;11.70;99.90;;;;;;2062525;28;20038;-68
2021/05/20 03:26:56;;;;;;;83.97;48.30;;;11.80;99.90;;;;;;2062632;28;20026;-68
2021/05/20 03:27:57;;;;;;;85.05;47.80;;;11.80;99.90;;;;;;2063071;28;20062;-68
2021/05/20 03:28:58;;;;;;;76.93;46.33;;;11.70;99.90;;;;;;2063057;28;20030;-68
2021/05/20 03:29:58;;;;;;;85.95;48.13;;;11.70;99.90;;;;;;2062915;28;20023;-68
2021/05/20 03:30:59;;;;;;;77.43;47.13;;;11.70;99.90;;;;;;2062787;28;20029;-68
2021/05/20 03:31:59;;;;;;;82.25;47.58;;;11.70;99.90;;;;;;2062911;28;20019;-68
2021/05/20 03:33:00;;;;;;;82.43;47.40;;;11.70;99.90;;;;;;2062277;28;20088;-68
2021/05/20 03:34:00;;;;;;;79.32;46.75;;;11.70;99.90;;;;;;2064267;28;20026;-68
2021/05/20 03:35:01;;;;;;;82.07;47.97;;;11.70;99.90;;;;;;2064315;28;20032;-68
2021/05/20 03:36:02;;;;;;;84.25;48.47;;;11.70;99.90;;;;;;2064641;28;20038;-68
2021/05/20 03:37:03;;;;;;;78.38;46.28;;;11.70;99.90;;;;;;2064667;28;20022;-68
2021/05/20 03:38:04;;;;;;;83.25;48.88;;;11.70;99.90;;;;;;2064488;28;20177;-68
2021/05/20 03:39:05;;;;;;;79.65;47.67;;;11.70;99.90;;;;;;2064210;28;20030;-68
2021/05/20 03:40:06;;;;;;;82.82;47.58;;;11.70;99.90;;;;;;2064752;28;20466;-68
2021/05/20 03:41:06;;;;;;;78.60;47.58;;;11.70;99.90;;;;;;2064306;28;20245;-68
2021/05/20 03:42:07;;;;;;;73.68;46.60;;;11.70;99.90;;;;;;2064156;28;20026;-68
2021/05/20 03:43:07;;;;;;;81.13;48.85;;;11.70;99.90;;;;;;2064034;28;20053;-68
2021/05/20 03:44:08;;;;;;;77.65;47.33;;;11.70;99.90;;;;;;2064650;28;20034;-68
2021/05/20 03:45:09;;;;;;;77.68;48.40;;;11.70;99.90;;;;;;2064510;28;20027;-68
2021/05/20 03:46:10;;;;;;;76.57;48.38;;;11.70;99.90;;;;;;2064346;28;20026;-68
2021/05/20 03:47:10;;;;;;;69.55;46.28;;;11.70;99.90;;;;;;2064604;28;20042;-68
2021/05/20 03:48:11;;;;;;;74.10;47.40;;;11.70;99.90;;;;;;2064511;28;20026;-68
2021/05/20 03:49:11;;;;;;;71.93;43.60;;;11.70;99.90;;;;;;2064639;28;20022;-68
2021/05/20 03:50:12;;;;;;;79.80;47.65;;;11.70;99.90;;;;;;2064314;28;20517;-68
2021/05/20 03:51:13;;;;;;;80.90;47.28;;;11.70;99.90;;;;;;2064616;28;20019;-68
2021/05/20 03:52:13;;;;;;;84.78;49.40;;;11.70;99.90;;;;;;2063895;28;20034;-68
2021/05/20 03:53:14;;;;;;;79.30;49.92;;;11.70;99.90;;;;;;2064397;28;20482;-68
2021/05/20 03:54:14;;;;;;;83.63;48.05;;;11.70;99.90;;;;;;2064248;28;20417;-68
2021/05/20 03:55:15;;;;;;;84.22;51.30;;;11.80;99.90;;;;;;2064130;28;20018;-68
2021/05/20 03:56:16;;;;;;;91.35;52.38;;;11.80;99.90;;;;;;2064243;28;20058;-68
2021/05/20 03:57:16;;;;;;;82.85;50.70;;;11.80;99.90;;;;;;2064591;28;20044;-68
2021/05/20 03:58:17;;;;;;;82.57;50.00;;;11.80;99.90;;;;;;2064192;28;20030;-68
2021/05/20 03:59:17;;;;;;;85.90;51.58;;;11.80;99.90;;;;;;2064667;28;20474;-68
2021/05/20 04:00:19;;;;;;;87.95;53.67;;;11.80;99.90;;;;;;2064437;28;20035;-68
2021/05/20 04:01:19;;;;;;;95.57;54.95;;;11.80;99.90;;;;;;2064404;28;20470;-68
2021/05/20 04:02:21;;;;;;;84.07;52.10;;;11.80;99.90;;;;;;2063656;28;20367;-68
2021/05/20 04:03:28;;;;;;;86.10;51.22;;;11.80;99.90;;;;;;2063889;28;20042;-67
2021/05/20 04:04:29;;;;;;;88.13;50.65;;;11.80;99.90;;;;;;2064203;28;20022;-68
2021/05/20 04:05:30;;;;;;;92.25;52.80;;;11.80;99.90;;;;;;2064664;28;20493;-68
2021/05/20 04:06:30;;;;;;;90.28;52.92;;;11.80;99.90;;;;;;2064083;28;20030;-68
2021/05/20 04:07:31;;;;;;;83.38;49.38;;;11.80;99.90;;;;;;2064500;28;20031;-68
2021/05/20 04:08:35;;;;;;;83.97;51.33;;;11.80;99.90;;;;;;2064110;28;20026;-68
2021/05/20 04:09:36;;;;;;;85.32;51.33;;;11.80;99.90;;;;;;2063892;28;20034;-68
2021/05/20 04:10:36;;;;;;;87.60;53.08;;;11.80;99.90;;;;;;2064312;28;20030;-68
2021/05/20 04:11:37;;;;;;;89.35;53.13;;;11.80;99.90;;;;;;2064184;28;20515;-68
2021/05/20 04:12:37;;;;;;;85.40;52.92;;;11.80;99.90;;;;;;2063460;28;20027;-68
2021/05/20 04:13:43;;;;;;;79.47;50.53;;;11.80;99.90;;;;;;2063663;28;20038;-68
2021/05/20 04:14:43;;;;;;;83.03;51.35;;;11.80;99.90;;;;;;2064194;28;20031;-68
2021/05/20 04:15:44;;;;;;;83.40;51.30;;;11.80;99.90;;;;;;2064192;28;20069;-68
2021/05/20 04:16:44;;;;;;;84.40;52.75;;;11.80;99.90;;;;;;2071496;28;20030;-68
2021/05/20 04:17:46;;;;;;;82.00;52.33;;;11.80;99.90;;;;;;2071932;28;20026;-68
2021/05/20 04:18:46;;;;;;;82.78;53.33;;;11.80;99.90;;;;;;2064358;28;20488;-68
2021/05/20 04:19:47;;;;;;;82.50;53.10;;;11.80;99.90;;;;;;2064373;28;20412;-68
2021/05/20 04:20:49;;;;;;;86.38;53.47;;;11.80;99.90;;;;;;2063797;28;20023;-68
2021/05/20 04:21:49;;;;;;;81.75;53.53;;;11.90;99.90;;;;;;2064428;28;20630;-68
2021/05/20 04:22:50;;;;;;;86.88;53.78;;;11.80;99.90;;;;;;2063513;28;20109;-68
2021/05/20 04:23:50;;;;;;;87.95;53.25;;;11.90;99.90;;;;;;2063880;28;20014;-68
2021/05/20 04:24:51;;;;;;;82.90;50.92;;;11.90;99.90;;;;;;2064038;28;20026;-68
2021/05/20 04:25:52;;;;;;;73.97;48.38;;;11.90;99.90;;;;;;2064210;28;20018;-68
2021/05/20 04:26:53;;;;;;;83.18;51.10;;;11.90;99.90;;;;;;2064222;28;20030;-68
2021/05/20 04:27:53;;;;;;;79.03;50.25;;;11.90;99.90;;;;;;2064032;28;20046;-68
2021/05/20 04:28:54;;;;;;;80.18;52.10;;;11.90;99.90;;;;;;2064276;28;20109;-68
2021/05/20 04:29:56;;;;;;;86.28;51.08;;;11.90;99.90;;;;;;2064403;28;20545;-68
2021/05/20 04:30:56;;;;;;;77.35;49.22;;;11.90;99.90;;;;;;2064302;28;20359;-68
2021/05/20 04:31:57;;;;;;;78.05;50.08;;;11.90;99.90;;;;;;2063802;28;20111;-68
2021/05/20 04:32:57;;;;;;;81.47;52.58;;;12.00;99.90;;;;;;2063869;28;20479;-68
2021/05/20 04:33:58;;;;;;;72.15;45.85;;;12.00;99.90;;;;;;2063912;28;20053;-68
2021/05/20 04:34:58;;;;;;;79.70;51.85;;;12.00;99.90;;;;;;2064308;28;20027;-68
2021/05/20 04:35:59;;;;;;;79.80;52.97;;;12.00;99.90;;;;;;2063763;28;20097;-69
2021/05/20 04:37:00;;;;;;;76.68;51.78;;;12.00;99.90;;;;;;2064353;28;20093;-68
2021/05/20 04:38:03;;;;;;;83.93;51.13;;;12.00;99.90;;;;;;2063891;28;20028;-68
2021/05/20 04:39:04;;;;;;;84.43;53.47;;;12.10;99.90;;;;;;2064192;28;20030;-68
2021/05/20 04:40:05;;;;;;;87.88;54.03;;;12.10;99.90;;;;;;2063912;28;20054;-68
2021/05/20 04:41:06;;;;;;;82.78;54.10;;;12.10;99.90;;;;;;2064193;28;20030;-68
2021/05/20 04:42:06;;;;;;;82.53;54.83;;;12.10;99.90;;;;;;2070994;28;20186;-68
2021/05/20 04:43:07;;;;;;;84.13;56.03;;;12.10;99.90;;;;;;2071483;28;20124;-68
2021/05/20 04:44:08;;;;;;;85.20;52.85;;;12.10;99.90;;;;;;2063344;28;20026;-68
2021/05/20 04:45:09;;;;;;;77.88;53.15;;;12.10;99.90;;;;;;2071628;28;20354;-68
2021/05/20 04:46:10;;;;;;;78.53;52.13;;;12.20;99.90;;;;;;2071611;28;20029;-68
2021/05/20 04:47:10;;;;;;;82.57;54.97;;;12.20;99.90;;;;;;2064237;28;20057;-68
2021/05/20 04:48:11;;;;;;;82.25;55.25;;;12.20;99.90;;;;;;2063767;28;20026;-68
2021/05/20 04:49:12;;;;;;;80.38;54.53;;;12.20;99.90;;;;;;2064202;28;20026;-67
2021/05/20 04:50:14;;;;;;;85.68;55.17;;;12.20;99.90;;;;;;2063964;28;20091;-67
2021/05/20 04:51:17;;;;;;;80.32;53.58;;;12.20;99.90;;;;;;2064106;28;20026;-68
2021/05/20 04:52:18;;;;;;;83.43;53.10;;;12.20;99.90;;;;;;2063163;28;20053;-68
2021/05/20 04:53:18;;;;;;;86.30;53.42;;;12.30;99.90;;;;;;2063911;28;20042;-68
2021/05/20 04:54:19;;;;;;;84.18;55.67;;;12.20;99.90;;;;;;2063952;28;20040;-68
2021/05/20 04:55:19;;;;;;;81.25;53.70;;;12.30;99.90;;;;;;2064066;28;20493;-68
2021/05/20 04:56:23;;;;;;;83.57;52.47;;;12.30;99.90;;;;;;2063803;28;20349;-68
2021/05/20 04:57:24;;;;;;;78.75;51.72;;;12.30;99.90;;;;;;2056311;28;20134;-67
2021/05/20 04:58:24;;;;;;;82.05;55.58;;;12.30;99.90;;;;;;2059194;28;20134;-68
2021/05/20 04:59:25;;;;;;;78.68;50.72;;;12.30;99.90;;;;;;2064346;28;20026;-68
2021/05/20 05:00:25;;;;;;;80.80;54.55;;;12.30;99.90;;;;;;2063728;28;20026;-68
2021/05/20 05:01:26;;;;;;;79.55;52.92;;;12.30;99.90;;;;;;2063914;28;20406;-68
2021/05/20 05:02:27;;;;;;;79.05;51.50;;;12.40;99.90;;;;;;2063263;28;20037;-68
2021/05/20 05:03:28;;;;;;;82.60;52.65;;;12.40;99.90;;;;;;2063786;28;20038;-68
2021/05/20 05:04:28;;;;;;;84.25;53.60;;;12.40;99.90;;;;;;2064079;28;20114;-68
2021/05/20 05:05:29;;;;;;;84.30;53.10;;;12.40;99.90;;;;;;2064220;28;20033;-68
2021/05/20 05:06:29;;;;;;;76.85;50.15;;;12.40;99.90;;;;;;2063429;28;20093;-68
2021/05/20 05:07:30;;;;;;;78.07;51.50;;;12.40;99.90;;;;;;2071531;28;20026;-68
2021/05/20 05:08:30;;;;;;;75.85;51.08;;;12.40;99.90;;;;;;2070583;28;20521;-68
2021/05/20 05:09:31;;;;;;;77.60;51.13;;;12.40;99.90;;;;;;2063971;28;20031;-68
2021/05/20 05:10:32;;;;;;;75.47;49.70;;;12.40;99.90;;;;;;2063983;28;20038;-68
2021/05/20 05:11:32;;;;;;;75.28;49.00;;;12.40;99.90;;;;;;2063826;28;20277;-68
2021/05/20 05:12:33;;;;;;;71.05;48.40;;;12.40;99.90;;;;;;2063567;28;20041;-68